• Join FlightAware (Why Join?)
  • Login
  • US Flag 
08:19PM EDT


 

Airport Tracker/Info


-or-


 

Live Flight TrackerFlight Track Log ✈ N682RW ✈ 14-May-2013 ✈ KDTW - KMDW

Flight Track Log - Related Links

Times and Time Zones

All times are in EDT time to prevent confusion due to time zone crossing. See the N682RW flight status page for this flight to view local times or setup timezone preferences in your user account.

Time Position Orientation Groundspeed Altitude Reporting Facility
EDT Latitude Longitude Course Direction KTS MPH feet Rate Location/Type
03:12PM 42.1911 -83.3550 211° Southwest 182 209 1,100  Level Cleveland Center
03:12PM 42.1656 -83.3761 211° Southwest 219 252 2,500 3,180 Climbing Cleveland Center
03:13PM 42.1103 -83.4297 216° Southwest 249 287 6,000 3,420 Climbing Cleveland Center
03:14PM 42.1022 -83.4939 260° West 252 290 8,800 2,340 Climbing Cleveland Center
03:15PM 42.1353 -83.5850 296° West 297 342 10,300 1,380 Climbing Cleveland Center
03:16PM 42.1475 -83.6836 280° West 311 358 11,600 1,500 Climbing Cleveland Center
03:17PM 42.1736 -83.7942 288° West 311 358 13,300 2,160 Climbing Cleveland Center
03:18PM 42.1992 -83.9217 285° West 332 382 16,000 2,700 Climbing Cleveland Center
03:19PM 42.1639 -84.0514 250° West 338 389 18,800 2,520 Climbing Cleveland Center
03:20PM 42.1100 -84.1772 240° Southwest 366 421 21,100 1,560 Climbing Cleveland Center
03:21PM 42.0556 -84.3197 243° Southwest 386 444 22,000 240 Climbing Cleveland Center
03:23PM 41.9519 -84.5667 241° Southwest 394 453 22,000  Level Chicago Center
03:24PM 41.8881 -84.7214 241° Southwest 396 456 22,000  Level Chicago Center
03:25PM 41.8356 -84.8525 242° Southwest 399 459 22,000  Level Chicago Center
03:26PM 41.7808 -84.9831 241° Southwest 401 461 22,000  Level Chicago Center
03:27PM 41.7261 -85.1156 241° Southwest 406 467 22,000  Level Chicago Center
03:28PM 41.6789 -85.2544 246° West 412 474 22,000  Level Chicago Center
03:29PM 41.6617 -85.4072 261° West 398 458 22,000 -300 Level Chicago Center
03:30PM 41.6406 -85.5636 260° West 402 463 21,500 -1,200 Descending Chicago Center
03:31PM 41.6206 -85.7053 259° West 391 450 19,500 -2,160 Descending Chicago Center
03:32PM 41.6022 -85.8414 260° West 377 434 17,000 -2,460 Descending Chicago Center
03:33PM 41.5806 -85.9967 259° West 356 410 14,500 -2,280 Descending Chicago Center
03:34PM 41.5622 -86.1233 259° West 350 403 12,400 -1,680 Descending Chicago Center
03:35PM 41.5442 -86.2489 259° West 347 399 11,100 -1,140 Descending Chicago Center
03:36PM 41.5264 -86.3722 259° West 341 392 10,100 -540 Descending Chicago Center
03:37PM 41.5217 -86.4967 267° West 333 383 10,100  Level Chicago Center
03:38PM 41.5217 -86.6456 270° West 335 386 10,100  Level Chicago Center
03:40PM 41.5208 -86.7578 269° West 338 389 10,100 -540 Level Chicago Center
03:41PM 41.5206 -86.8703 270° West 308 354 9,000 -1,260 Descending Chicago Center
03:42PM 41.5178 -86.9947 268° West 280 322 7,600 -1,320 Descending Chicago Center
03:43PM 41.5178 -87.0892 270° West 261 300 6,300 -960 Descending Chicago Center
03:44PM 41.5175 -87.1822 270° West 255 293 5,600 -780 Descending Chicago Center
03:44PM 41.5333 -87.2167 302° West 251 289 5,300 -1,200 Descending Chicago TRACON
03:45PM 41.5667 -87.3167 294° West 238 274 3,900 -720 Descending Chicago TRACON
03:46PM 41.5833 -87.3833 289° West 202 232 3,900  Level Chicago TRACON
03:47PM 41.5969 -87.4233 294° West 215 247 3,900  Level Chicago Center
03:48PM 41.6219 -87.4856 298° West 200 230 3,900  Level Chicago Center
03:49PM 41.6492 -87.5494 300° West 198 228 3,900  Level Chicago Center
03:50PM 41.6789 -87.6097 303° West 197 227 3,900 -420 Level Chicago Center
03:50PM 41.7000 -87.6333 320° Northwest 198 228 3,400 -1,320 Descending Chicago TRACON
03:51PM 41.7333 -87.6833 312° West 195 224 2,400 -840 Descending Chicago TRACON
03:52PM 41.7667 -87.6833 360° North 184 212 1,900 -540 Descending Chicago TRACON
03:53PM 41.8167 -87.7000 346° North 152 175 1,400 -540 Descending Chicago TRACON